createdAt,value
2023-03-05T00:00:18.362Z,0.60
2023-03-05T00:01:51.490Z,0.60
2023-03-05T00:03:24.633Z,0.45
2023-03-05T00:04:57.804Z,0.55
2023-03-05T00:06:32.805Z,0.28
2023-03-05T00:10:02.510Z,0.77
2023-03-05T00:11:36.043Z,0.40
2023-03-05T00:13:08.439Z,0.63
2023-03-05T00:14:41.778Z,0.55
2023-03-05T00:16:17.263Z,0.45
2023-03-05T00:17:50.674Z,0.50
2023-03-05T00:19:23.807Z,0.40
2023-03-05T00:20:56.201Z,0.50
2023-03-05T00:22:29.334Z,0.40
2023-03-05T00:24:05.413Z,0.57
2023-03-05T00:25:40.121Z,0.50
2023-03-05T00:27:13.241Z,0.70
2023-03-05T00:28:49.913Z,0.38
2023-03-05T00:30:23.324Z,0.50
2023-03-05T00:31:55.599Z,0.40
2023-03-05T00:33:29.378Z,0.60
2023-03-05T00:35:02.790Z,0.70
2023-03-05T00:36:40.145Z,0.40
2023-03-05T00:38:14.361Z,0.50
2023-03-05T00:39:47.490Z,0.47
2023-03-05T00:41:22.320Z,0.38
2023-03-05T00:42:55.804Z,0.50
2023-03-05T00:44:28.917Z,0.50
2023-03-05T00:46:01.317Z,0.32
2023-03-05T00:47:34.563Z,0.50
2023-03-05T00:49:08.745Z,0.45
2023-03-05T00:50:41.997Z,0.40
2023-03-05T00:52:15.089Z,0.38
2023-03-05T00:53:49.046Z,0.60
2023-03-05T00:55:22.420Z,0.57
2023-03-05T00:56:56.901Z,0.45
2023-03-05T00:58:29.777Z,0.50
2023-03-05T01:00:03.419Z,0.50
2023-03-05T01:01:36.654Z,0.65
2023-03-05T01:03:10.624Z,0.32
2023-03-05T01:04:46.998Z,0.50
2023-03-05T01:06:20.595Z,0.47
2023-03-05T01:07:54.536Z,0.82
2023-03-05T01:09:27.828Z,0.50
2023-03-05T01:11:00.184Z,0.43
2023-03-05T01:12:34.704Z,0.40
2023-03-05T01:14:08.097Z,0.47
2023-03-05T01:15:40.361Z,0.40
2023-03-05T01:17:13.802Z,0.60
2023-03-05T01:18:47.552Z,0.38
2023-03-05T01:20:23.387Z,0.57
2023-03-05T01:21:56.867Z,0.50
2023-03-05T01:23:30.180Z,0.47
2023-03-05T01:25:03.555Z,0.70
2023-03-05T01:26:37.292Z,0.50
2023-03-05T01:28:12.324Z,0.65
2023-03-05T01:29:45.412Z,0.50
2023-03-05T01:31:18.507Z,0.63
2023-03-05T01:32:50.721Z,0.50
2023-03-05T01:34:23.851Z,0.60
2023-03-05T01:35:57.105Z,0.30
2023-03-05T01:37:30.363Z,0.40
2023-03-05T01:39:03.885Z,0.40
2023-03-05T01:40:37.375Z,0.60
2023-03-05T01:42:10.677Z,0.40
2023-03-05T01:43:47.277Z,0.50
2023-03-05T01:45:19.491Z,0.40
2023-03-05T01:46:52.639Z,0.35
2023-03-05T01:48:25.385Z,0.55
2023-03-05T01:49:59.593Z,0.70
2023-03-05T01:51:38.794Z,0.55
2023-03-05T01:53:11.998Z,0.57
2023-03-05T01:54:50.929Z,0.30
2023-03-05T01:56:23.231Z,0.45
2023-03-05T01:58:03.009Z,0.52
2023-03-05T01:59:39.414Z,0.60
2023-03-05T02:01:13.346Z,0.63
2023-03-05T02:02:51.118Z,0.73
2023-03-05T02:04:33.455Z,0.70
2023-03-05T02:06:06.106Z,0.77
2023-03-05T02:07:42.985Z,0.73
2023-03-05T02:09:16.758Z,1.30
2023-03-05T02:10:53.949Z,0.90
2023-03-05T02:12:30.538Z,0.93
2023-03-05T02:14:05.305Z,1.25
2023-03-05T02:15:41.941Z,1.75
2023-03-05T02:17:17.442Z,1.83
2023-03-05T02:18:50.159Z,2.78
2023-03-05T02:20:27.688Z,3.00
2023-03-05T02:22:02.420Z,2.85
2023-03-05T02:23:39.593Z,2.80
2023-03-05T02:25:16.973Z,2.88
2023-03-05T02:26:50.470Z,2.85
2023-03-05T02:28:31.224Z,3.05
2023-03-05T02:31:38.950Z,2.30
2023-03-05T02:33:13.884Z,2.90
2023-03-05T02:34:46.980Z,2.70
2023-03-05T02:36:20.471Z,2.40
2023-03-05T02:37:54.969Z,3.05
2023-03-05T02:39:28.412Z,2.70
2023-03-05T02:41:01.110Z,2.53
2023-03-05T02:42:35.539Z,2.83
2023-03-05T02:44:09.609Z,2.63
2023-03-05T02:45:43.229Z,2.83
2023-03-05T02:47:16.581Z,2.60
2023-03-05T02:48:49.903Z,2.72
2023-03-05T02:50:23.849Z,2.80
2023-03-05T02:51:57.156Z,2.80
2023-03-05T02:53:30.896Z,2.55
2023-03-05T02:55:04.841Z,2.33
2023-03-05T02:56:39.744Z,2.67
2023-03-05T02:58:12.916Z,2.58
2023-03-05T02:59:46.501Z,2.33
2023-03-05T03:01:20.350Z,2.33
2023-03-05T03:02:54.041Z,2.63
2023-03-05T03:04:27.492Z,2.42
2023-03-05T03:06:00.623Z,2.28
2023-03-05T03:07:34.340Z,2.35
2023-03-05T03:09:09.025Z,2.65
2023-03-05T03:10:41.598Z,2.75
2023-03-05T03:12:15.417Z,2.45
2023-03-05T03:13:49.171Z,2.50
2023-03-05T03:15:22.611Z,2.40
2023-03-05T03:16:55.763Z,2.50
2023-03-05T03:18:27.896Z,2.53
2023-03-05T03:20:03.308Z,2.67
2023-03-05T03:21:36.409Z,2.78
2023-03-05T03:23:10.004Z,3.85
2023-03-05T03:24:45.238Z,2.53
2023-03-05T03:26:19.204Z,2.38
2023-03-05T03:27:52.509Z,2.58
2023-03-05T03:29:25.749Z,2.20
2023-03-05T03:30:58.927Z,2.17
2023-03-05T03:32:33.580Z,1.58
2023-03-05T03:34:17.193Z,1.50
2023-03-05T03:35:50.518Z,1.45
2023-03-05T03:37:23.845Z,1.33
2023-03-05T03:38:56.986Z,1.13
2023-03-05T03:40:32.953Z,1.10
2023-03-05T03:42:06.855Z,1.35
2023-03-05T03:43:40.193Z,0.70
2023-03-05T03:45:14.510Z,1.00
2023-03-05T03:46:49.564Z,1.10
2023-03-05T03:48:22.730Z,1.27
2023-03-05T03:49:56.104Z,0.65
2023-03-05T03:51:29.202Z,0.93
2023-03-05T03:53:02.647Z,1.05
2023-03-05T03:54:36.607Z,1.00
2023-03-05T03:56:11.279Z,0.90
2023-03-05T03:57:44.467Z,1.30
2023-03-05T03:59:16.715Z,1.40
2023-03-05T04:00:50.017Z,1.20
2023-03-05T04:02:23.688Z,1.20
2023-03-05T04:03:56.946Z,1.27
2023-03-05T04:05:29.111Z,1.20
2023-03-05T04:07:02.925Z,1.25
2023-03-05T04:08:36.254Z,1.58
2023-03-05T04:10:11.422Z,1.35
2023-03-05T04:11:46.074Z,1.48
2023-03-05T04:13:18.166Z,1.35
2023-03-05T04:14:51.789Z,1.35
2023-03-05T04:16:25.353Z,1.33
2023-03-05T04:17:58.620Z,1.65
2023-03-05T04:19:31.993Z,1.30
2023-03-05T04:21:06.017Z,1.98
2023-03-05T04:22:39.352Z,1.50
2023-03-05T04:24:12.730Z,1.13
2023-03-05T04:25:46.105Z,1.42
2023-03-05T04:27:20.458Z,1.48
2023-03-05T04:28:53.568Z,1.35
2023-03-05T04:30:26.680Z,1.60
2023-03-05T04:31:59.860Z,1.60
2023-03-05T04:33:33.750Z,1.23
2023-03-05T04:35:06.398Z,1.60
2023-03-05T04:36:39.436Z,1.42
2023-03-05T04:38:13.251Z,1.27
2023-03-05T04:39:45.385Z,1.40
2023-03-05T04:41:18.583Z,1.25
2023-03-05T04:42:53.438Z,1.10
2023-03-05T04:44:25.982Z,1.20
2023-03-05T04:45:59.084Z,1.20
2023-03-05T04:47:32.231Z,1.13
2023-03-05T04:49:05.581Z,1.17
2023-03-05T04:50:38.912Z,1.38
2023-03-05T04:52:15.251Z,1.27
2023-03-05T04:53:48.608Z,1.30
2023-03-05T04:55:20.755Z,1.23
2023-03-05T04:56:54.081Z,1.45
2023-03-05T04:58:29.719Z,1.23
2023-03-05T05:00:01.949Z,1.17
2023-03-05T05:01:35.370Z,1.48
2023-03-05T05:03:08.537Z,1.13
2023-03-05T05:04:44.958Z,1.58
2023-03-05T05:06:18.154Z,1.73
2023-03-05T05:07:54.275Z,1.23
2023-03-05T05:09:27.834Z,1.60
2023-03-05T05:11:04.024Z,1.60
2023-03-05T05:12:37.921Z,1.33
2023-03-05T05:14:11.416Z,1.30
2023-03-05T05:15:44.590Z,1.33
2023-03-05T05:17:17.724Z,1.42
2023-03-05T05:18:50.845Z,1.33
2023-03-05T05:20:23.926Z,1.33
2023-03-05T05:21:57.050Z,1.60
2023-03-05T05:23:30.207Z,1.58
2023-03-05T05:25:03.257Z,1.63
2023-03-05T05:26:36.588Z,2.50
2023-03-05T05:28:10.370Z,1.88
2023-03-05T05:29:46.409Z,2.47
2023-03-05T05:31:19.416Z,2.75
2023-03-05T05:32:52.552Z,2.53
2023-03-05T05:34:26.046Z,3.42
2023-03-05T05:35:58.178Z,2.60
2023-03-05T05:37:31.768Z,2.30
2023-03-05T05:39:05.433Z,2.45
2023-03-05T05:40:38.667Z,2.92
2023-03-05T05:42:11.087Z,2.90
2023-03-05T05:43:44.732Z,3.30
2023-03-05T05:45:19.466Z,3.13
2023-03-05T05:46:52.844Z,3.50
2023-03-05T05:48:25.966Z,3.60
2023-03-05T05:49:59.387Z,3.63
2023-03-05T05:51:32.494Z,3.08
2023-03-05T05:53:05.576Z,3.85
2023-03-05T05:54:38.794Z,3.22
2023-03-05T05:56:14.596Z,3.22
2023-03-05T05:57:47.778Z,4.13
2023-03-05T05:59:21.067Z,3.13
2023-03-05T06:00:55.683Z,3.20
2023-03-05T06:02:28.810Z,3.13
2023-03-05T06:04:02.068Z,2.80
2023-03-05T06:05:35.831Z,2.83
2023-03-05T06:07:09.232Z,3.55
2023-03-05T06:08:43.185Z,3.20
2023-03-05T06:10:16.519Z,3.03
2023-03-05T06:11:48.619Z,3.42
2023-03-05T06:13:21.954Z,3.15
2023-03-05T06:14:55.140Z,3.80
2023-03-05T06:16:29.613Z,3.35
2023-03-05T06:18:03.244Z,3.10
2023-03-05T06:19:36.369Z,3.58
2023-03-05T06:21:12.877Z,3.67
2023-03-05T06:22:46.030Z,3.38
2023-03-05T06:24:20.367Z,3.10
2023-03-05T06:25:53.257Z,3.05
2023-03-05T06:27:26.466Z,3.28
2023-03-05T06:28:59.988Z,3.00
2023-03-05T06:30:33.420Z,2.85
2023-03-05T06:32:08.593Z,3.22
2023-03-05T06:33:42.886Z,4.00
2023-03-05T06:35:15.986Z,2.83
2023-03-05T06:36:49.420Z,3.28
2023-03-05T06:38:22.540Z,3.08
2023-03-05T06:39:56.002Z,3.80
2023-03-05T06:41:31.667Z,3.25
2023-03-05T06:43:04.761Z,3.33
2023-03-05T06:44:40.204Z,2.80
2023-03-05T06:46:15.553Z,3.08
2023-03-05T06:47:49.943Z,3.80
2023-03-05T06:49:23.102Z,4.07
2023-03-05T06:50:56.181Z,3.72
2023-03-05T06:52:29.349Z,4.30
2023-03-05T06:54:06.875Z,4.50
2023-03-05T06:55:40.497Z,3.90
2023-03-05T06:57:13.727Z,3.97
2023-03-05T06:58:48.822Z,4.00
2023-03-05T07:01:57.783Z,4.05
2023-03-05T07:03:32.164Z,4.63
2023-03-05T07:05:06.355Z,4.68
2023-03-05T07:06:42.032Z,5.03
2023-03-05T07:08:15.401Z,5.18
2023-03-05T07:09:50.225Z,5.28
2023-03-05T07:12:57.053Z,5.28
2023-03-05T07:14:30.138Z,4.38
2023-03-05T07:16:07.690Z,5.30
2023-03-05T07:17:40.784Z,5.20
2023-03-05T07:19:15.363Z,5.53
2023-03-05T07:20:48.923Z,6.18
2023-03-05T07:22:22.013Z,5.82
2023-03-05T07:23:56.723Z,6.30
2023-03-05T07:25:28.906Z,6.50
2023-03-05T07:27:02.077Z,6.47
2023-03-05T07:28:35.974Z,6.38
2023-03-05T07:30:11.495Z,6.18
2023-03-05T07:31:44.581Z,5.90
2023-03-05T07:33:17.827Z,6.28
2023-03-05T07:34:52.230Z,6.32
2023-03-05T07:36:25.544Z,5.68
2023-03-05T07:37:58.681Z,6.68
2023-03-05T07:39:31.833Z,6.47
2023-03-05T07:41:06.940Z,6.57
2023-03-05T07:42:40.329Z,7.03
2023-03-05T07:44:20.186Z,6.65
2023-03-05T07:45:53.360Z,6.63
2023-03-05T07:47:26.542Z,6.90
2023-03-05T07:49:00.259Z,7.32
2023-03-05T07:50:34.639Z,7.05
2023-03-05T07:52:08.257Z,7.28
2023-03-05T07:53:41.396Z,7.68
2023-03-05T07:55:14.690Z,7.53
2023-03-05T07:56:48.593Z,7.60
2023-03-05T07:58:22.074Z,7.47
2023-03-05T07:59:55.499Z,6.97
2023-03-05T08:01:29.801Z,7.25
2023-03-05T08:03:02.895Z,7.45
2023-03-05T08:04:36.477Z,7.88
2023-03-05T08:06:13.212Z,6.97
2023-03-05T08:07:46.508Z,6.82
2023-03-05T08:09:20.323Z,7.15
2023-03-05T08:10:53.438Z,7.35
2023-03-05T08:12:26.871Z,7.57
2023-03-05T08:14:00.878Z,7.07
2023-03-05T08:15:34.012Z,6.22
2023-03-05T08:17:08.525Z,6.30
2023-03-05T08:18:42.115Z,6.47
2023-03-05T08:20:15.357Z,6.47
2023-03-05T08:21:50.184Z,6.93
2023-03-05T08:23:23.317Z,6.18
2023-03-05T08:24:56.607Z,5.70
2023-03-05T08:26:32.658Z,6.45
2023-03-05T08:28:06.334Z,6.40
2023-03-05T08:29:39.610Z,6.63
2023-03-05T08:31:14.022Z,6.05
2023-03-05T08:32:49.148Z,6.72
2023-03-05T08:34:22.457Z,7.00
2023-03-05T08:35:55.712Z,6.72
2023-03-05T08:37:30.432Z,7.20
2023-03-05T08:39:03.713Z,6.50
2023-03-05T08:40:36.880Z,7.30
2023-03-05T08:42:10.099Z,7.32
2023-03-05T08:43:44.084Z,8.00
2023-03-05T08:45:17.333Z,6.70
2023-03-05T08:46:50.453Z,6.78
2023-03-05T08:48:23.717Z,6.40
2023-03-05T08:49:57.511Z,6.32
2023-03-05T08:51:30.741Z,6.70
2023-03-05T08:53:05.442Z,6.22
2023-03-05T08:54:39.030Z,5.38
2023-03-05T08:56:12.740Z,5.53
2023-03-05T08:57:46.137Z,5.32
2023-03-05T08:59:19.552Z,5.53
2023-03-05T09:00:53.190Z,6.28
2023-03-05T09:02:26.356Z,4.85
2023-03-05T09:04:00.781Z,5.50
2023-03-05T09:05:33.817Z,5.20
2023-03-05T09:07:07.708Z,5.53
2023-03-05T09:08:43.065Z,4.85
2023-03-05T09:10:18.516Z,5.20
2023-03-05T09:11:52.732Z,5.03
2023-03-05T09:13:26.097Z,4.85
2023-03-05T09:14:59.289Z,5.22
2023-03-05T09:16:32.972Z,5.13
2023-03-05T09:18:08.905Z,5.13
2023-03-05T09:19:42.191Z,5.30
2023-03-05T09:21:18.681Z,5.40
2023-03-05T09:22:52.187Z,5.32
2023-03-05T09:24:26.885Z,5.60
2023-03-05T09:26:00.217Z,5.45
2023-03-05T09:27:34.828Z,6.13
2023-03-05T09:29:08.759Z,5.68
2023-03-05T09:30:42.228Z,6.03
2023-03-05T09:32:15.359Z,6.07
2023-03-05T09:33:50.297Z,6.25
2023-03-05T09:35:23.976Z,5.60
2023-03-05T09:36:57.149Z,6.03
2023-03-05T09:38:30.859Z,5.50
2023-03-05T09:40:06.343Z,5.60
2023-03-05T09:42:23.279Z,4.97
2023-03-05T09:44:12.710Z,5.47
2023-03-05T09:46:00.760Z,4.93
2023-03-05T09:47:53.766Z,4.65
2023-03-05T09:49:44.621Z,4.25
2023-03-05T09:51:25.577Z,5.32
2023-03-05T09:53:07.014Z,4.60
2023-03-05T09:54:44.128Z,5.28
2023-03-05T09:56:25.877Z,4.28
2023-03-05T09:58:06.883Z,4.32
2023-03-05T09:59:49.306Z,4.47
2023-03-05T10:01:29.135Z,4.32
2023-03-05T10:03:11.638Z,4.68
2023-03-05T10:04:49.941Z,5.13
2023-03-05T10:06:27.322Z,4.25
2023-03-05T10:08:05.974Z,4.55
2023-03-05T10:09:47.457Z,4.72
2023-03-05T10:11:44.724Z,4.38
2023-03-05T10:13:25.349Z,4.38
2023-03-05T10:15:00.716Z,4.25
2023-03-05T10:16:57.897Z,4.35
2023-03-05T10:18:41.126Z,4.13
2023-03-05T10:20:34.109Z,3.80
2023-03-05T10:22:20.004Z,4.05
2023-03-05T10:24:04.389Z,3.70
2023-03-05T10:25:59.248Z,4.20
2023-03-05T10:27:51.218Z,3.92
2023-03-05T10:30:01.553Z,4.10
2023-03-05T10:31:51.170Z,3.67
2023-03-05T10:33:35.784Z,3.75
2023-03-05T10:35:25.762Z,4.28
2023-03-05T10:37:17.863Z,3.78
2023-03-05T10:39:42.993Z,4.43
2023-03-05T10:41:30.097Z,3.97
2023-03-05T10:43:20.468Z,3.80
2023-03-05T10:44:57.168Z,4.13
2023-03-05T10:46:36.460Z,4.15
2023-03-05T10:48:28.464Z,4.38
2023-03-05T10:50:01.848Z,3.88
2023-03-05T10:51:41.261Z,4.00
2023-03-05T10:53:24.419Z,4.18
2023-03-05T10:54:57.544Z,4.15
2023-03-05T10:56:31.758Z,4.78
2023-03-05T10:58:13.772Z,6.72
2023-03-05T10:59:52.314Z,4.43
2023-03-05T11:01:28.969Z,11.82
2023-03-05T11:03:05.572Z,8.32
2023-03-05T11:04:41.528Z,5.38
2023-03-05T11:06:15.904Z,7.05
2023-03-05T11:07:49.049Z,15.32
2023-03-05T11:09:29.040Z,25.73
2023-03-05T11:11:18.942Z,15.55
2023-03-05T11:12:54.226Z,30.42
2023-03-05T11:14:33.449Z,21.02
2023-03-05T11:16:15.468Z,15.00
2023-03-05T11:18:04.130Z,14.25
2023-03-05T11:19:37.622Z,9.35
2023-03-05T11:21:19.500Z,8.60
2023-03-05T11:23:11.783Z,7.10
2023-03-05T11:24:46.798Z,6.97
2023-03-05T11:27:59.815Z,5.22
2023-03-05T11:29:35.947Z,5.20
2023-03-05T11:31:24.203Z,5.65
2023-03-05T11:33:19.307Z,6.00
2023-03-05T11:34:53.819Z,6.45
2023-03-05T11:36:31.288Z,5.82
2023-03-05T11:38:07.775Z,6.10
2023-03-05T11:39:41.242Z,6.97
2023-03-05T11:41:15.067Z,7.55
2023-03-05T11:42:56.428Z,7.03
2023-03-05T11:44:38.988Z,6.45
2023-03-05T11:46:14.048Z,9.25
2023-03-05T11:49:28.821Z,6.80
2023-03-05T11:51:08.903Z,6.85
2023-03-05T11:52:49.553Z,8.02
2023-03-05T11:56:16.484Z,7.25
2023-03-05T11:58:18.699Z,6.82
2023-03-05T11:59:57.154Z,7.63
2023-03-05T12:01:35.131Z,6.93
2023-03-05T12:03:15.500Z,6.60
2023-03-05T12:04:50.168Z,7.47
2023-03-05T12:06:34.343Z,7.00
2023-03-05T12:08:14.506Z,7.45
2023-03-05T12:09:51.874Z,7.63
2023-03-05T12:11:29.455Z,7.43
2023-03-05T12:13:15.881Z,7.60
2023-03-05T12:15:02.365Z,7.15
2023-03-05T12:16:41.864Z,7.38
2023-03-05T12:18:39.064Z,7.43
2023-03-05T12:20:19.438Z,7.68
2023-03-05T12:21:54.305Z,7.55
2023-03-05T12:23:28.288Z,7.95
2023-03-05T12:25:28.881Z,8.25
2023-03-05T12:27:15.841Z,8.23
2023-03-05T12:28:57.702Z,7.50
2023-03-05T12:31:02.228Z,7.82
2023-03-05T12:33:00.691Z,6.95
2023-03-05T12:34:57.161Z,7.38
2023-03-05T12:36:39.835Z,7.03
2023-03-05T12:38:33.160Z,6.70
2023-03-05T12:40:22.686Z,7.80
2023-03-05T12:41:56.551Z,7.18
2023-03-05T12:43:32.603Z,7.63
2023-03-05T12:45:33.574Z,7.07
2023-03-05T12:47:23.891Z,7.20
2023-03-05T12:48:57.065Z,7.00
2023-03-05T12:50:51.429Z,7.47
2023-03-05T12:52:30.550Z,7.60
2023-03-05T12:54:31.892Z,7.60
2023-03-05T12:56:18.759Z,7.38
2023-03-05T12:57:59.363Z,7.80
2023-03-05T12:59:44.519Z,7.03
2023-03-05T13:01:46.710Z,6.75
2023-03-05T13:03:27.567Z,6.45
2023-03-05T13:05:07.419Z,5.72
2023-03-05T13:06:41.366Z,6.22
2023-03-05T13:08:22.468Z,5.13
2023-03-05T13:09:57.728Z,5.30
2023-03-05T13:11:34.981Z,5.32
2023-03-05T13:13:16.009Z,5.40
2023-03-05T13:14:58.348Z,4.85
2023-03-05T13:16:40.312Z,5.07
2023-03-05T13:18:22.244Z,3.75
2023-03-05T13:19:54.727Z,3.53
2023-03-05T13:21:31.254Z,3.22
2023-03-05T13:23:18.107Z,3.20
2023-03-05T13:25:04.659Z,3.15
2023-03-05T13:28:16.382Z,2.40
2023-03-05T13:29:53.565Z,2.30
2023-03-05T13:31:26.726Z,2.53
2023-03-05T13:33:03.900Z,2.47
2023-03-05T13:34:47.368Z,2.70
2023-03-05T13:36:22.622Z,2.00
2023-03-05T13:37:56.001Z,2.90
2023-03-05T13:39:34.505Z,2.35
2023-03-05T13:41:20.678Z,3.10
2023-03-05T13:42:56.559Z,3.15
2023-03-05T13:44:31.180Z,3.17
2023-03-05T13:46:04.396Z,3.20
2023-03-05T13:47:37.613Z,3.38
2023-03-05T13:49:28.788Z,3.30
2023-03-05T13:51:06.814Z,2.78
2023-03-05T13:52:40.328Z,3.03
2023-03-05T13:54:18.811Z,3.38
2023-03-05T13:55:55.319Z,4.00
2023-03-05T13:57:41.074Z,3.47
2023-03-05T13:59:20.456Z,3.20
2023-03-05T14:01:06.335Z,3.53
2023-03-05T14:02:44.762Z,3.30
2023-03-05T14:04:23.732Z,3.38
2023-03-05T14:05:57.128Z,3.40
2023-03-05T14:07:38.456Z,3.30
2023-03-05T14:09:22.742Z,3.10
2023-03-05T14:11:15.227Z,3.53
2023-03-05T14:12:52.514Z,3.55
2023-03-05T14:14:28.307Z,3.60
2023-03-05T14:16:06.694Z,3.40
2023-03-05T14:17:42.937Z,3.13
2023-03-05T14:19:36.021Z,3.42
2023-03-05T14:21:12.316Z,3.63
2023-03-05T14:22:49.402Z,3.47
2023-03-05T14:24:28.216Z,3.40
2023-03-05T14:26:29.764Z,3.60
2023-03-05T14:28:05.364Z,3.60
2023-03-05T14:29:38.966Z,3.13
2023-03-05T14:31:17.978Z,3.95
2023-03-05T14:32:54.059Z,3.63
2023-03-05T14:34:31.800Z,3.75
2023-03-05T14:36:06.886Z,3.88
2023-03-05T14:37:44.941Z,4.50
2023-03-05T14:39:36.786Z,4.25
2023-03-05T14:41:39.992Z,4.57
2023-03-05T14:43:13.349Z,3.70
2023-03-05T14:44:46.678Z,4.25
2023-03-05T14:46:20.001Z,4.70
2023-03-05T14:47:57.374Z,4.53
2023-03-05T14:49:31.791Z,4.32
2023-03-05T14:51:05.880Z,4.88
2023-03-05T14:52:39.093Z,5.55
2023-03-05T14:54:21.756Z,4.72
2023-03-05T14:55:57.701Z,5.32
2023-03-05T14:57:33.673Z,5.40
2023-03-05T14:59:06.747Z,5.38
2023-03-05T15:00:40.072Z,6.10
2023-03-05T15:02:17.550Z,6.05
2023-03-05T15:03:50.704Z,6.50
2023-03-05T15:05:23.820Z,6.60
2023-03-05T15:06:56.972Z,6.40
2023-03-05T15:08:33.397Z,6.28
2023-03-05T15:10:08.625Z,6.55
2023-03-05T15:11:43.054Z,6.50
2023-03-05T15:13:17.599Z,6.75
2023-03-05T15:14:50.918Z,6.63
2023-03-05T15:16:24.691Z,6.05
2023-03-05T15:17:57.797Z,6.45
2023-03-05T15:19:30.989Z,7.20
2023-03-05T15:21:04.500Z,6.63
2023-03-05T15:22:38.414Z,6.72
2023-03-05T15:24:14.645Z,6.60
2023-03-05T15:25:47.772Z,6.30
2023-03-05T15:27:22.313Z,6.20
2023-03-05T15:30:32.223Z,6.65
2023-03-05T15:32:06.177Z,6.78
2023-03-05T15:33:41.637Z,6.13
2023-03-05T15:35:14.950Z,6.78
2023-03-05T15:36:49.098Z,6.45
2023-03-05T15:38:22.432Z,6.50
2023-03-05T15:39:55.815Z,7.15
2023-03-05T15:41:29.254Z,6.90
2023-03-05T15:43:03.894Z,6.35
2023-03-05T15:44:39.137Z,6.85
2023-03-05T15:46:12.519Z,6.97
2023-03-05T15:47:45.899Z,7.10
2023-03-05T15:49:18.616Z,6.72
2023-03-05T15:50:51.784Z,6.90
2023-03-05T15:52:25.032Z,6.13
2023-03-05T15:53:58.080Z,6.82
2023-03-05T15:55:31.136Z,7.15
2023-03-05T15:57:07.779Z,6.43
2023-03-05T15:58:43.250Z,6.43
2023-03-05T16:00:21.079Z,6.38
2023-03-05T16:01:55.373Z,6.40
2023-03-05T16:03:28.554Z,6.03
2023-03-05T16:05:01.753Z,6.25
2023-03-05T16:06:35.799Z,6.43
2023-03-05T16:08:09.902Z,6.13
2023-03-05T16:09:49.140Z,4.68
2023-03-05T16:11:23.166Z,5.38
2023-03-05T16:13:02.286Z,5.82
2023-03-05T16:14:39.769Z,5.20
2023-03-05T16:16:14.020Z,5.50
2023-03-05T16:17:53.230Z,5.07
2023-03-05T16:19:28.898Z,4.50
2023-03-05T16:21:02.180Z,4.88
2023-03-05T16:22:35.520Z,4.85
2023-03-05T16:24:08.770Z,4.15
2023-03-05T16:25:42.018Z,3.65
2023-03-05T16:27:15.321Z,3.90
2023-03-05T16:28:48.421Z,3.63
2023-03-05T16:30:23.149Z,3.47
2023-03-05T16:31:56.440Z,3.10
2023-03-05T16:33:31.670Z,3.63
2023-03-05T16:35:05.579Z,3.10
2023-03-05T16:36:38.729Z,3.25
2023-03-05T16:38:11.922Z,2.90
2023-03-05T16:39:45.038Z,2.55
2023-03-05T16:41:22.027Z,2.92
2023-03-05T16:42:56.278Z,2.50
2023-03-05T16:44:29.445Z,2.67
2023-03-05T16:46:03.915Z,2.78
2023-03-05T16:47:37.979Z,2.30
2023-03-05T16:49:11.181Z,2.40
2023-03-05T16:50:44.681Z,2.13
2023-03-05T16:52:19.730Z,2.50
2023-03-05T16:53:55.755Z,2.42
2023-03-05T16:57:02.229Z,2.03
2023-03-05T16:58:37.911Z,1.92
2023-03-05T17:00:13.096Z,2.20
2023-03-05T17:01:47.507Z,2.38
2023-03-05T17:03:20.757Z,2.17
2023-03-05T17:04:55.861Z,2.15
2023-03-05T17:06:31.979Z,1.90
2023-03-05T17:08:06.143Z,2.08
2023-03-05T17:09:39.882Z,2.75
2023-03-05T17:11:13.960Z,2.25
2023-03-05T17:12:48.239Z,2.05
2023-03-05T17:14:21.600Z,2.03
2023-03-05T17:15:57.013Z,2.25
2023-03-05T17:17:32.436Z,2.17
2023-03-05T17:19:05.768Z,2.08
2023-03-05T17:20:38.889Z,2.38
2023-03-05T17:22:12.831Z,2.70
2023-03-05T17:23:45.940Z,2.20
2023-03-05T17:25:19.808Z,1.98
2023-03-05T17:26:53.057Z,2.40
2023-03-05T17:28:26.620Z,2.50
2023-03-05T17:29:59.693Z,2.13
2023-03-05T17:31:33.324Z,2.08
2023-03-05T17:33:08.105Z,2.35
2023-03-05T17:34:41.494Z,1.65
2023-03-05T17:36:17.308Z,2.00
2023-03-05T17:37:55.112Z,1.80
2023-03-05T17:39:28.366Z,2.10
2023-03-05T17:41:01.612Z,1.65
2023-03-05T17:42:34.701Z,1.98
2023-03-05T17:44:07.837Z,1.50
2023-03-05T17:45:41.220Z,2.08
2023-03-05T17:47:14.821Z,1.55
2023-03-05T17:48:49.502Z,2.08
2023-03-05T17:50:22.823Z,2.10
2023-03-05T17:51:56.544Z,1.67
2023-03-05T17:53:29.773Z,1.88
2023-03-05T17:55:08.727Z,1.83
2023-03-05T17:56:41.892Z,1.83
2023-03-05T17:58:15.323Z,1.65
2023-03-05T17:59:49.176Z,2.03
2023-03-05T18:01:28.389Z,1.98
2023-03-05T18:03:02.958Z,1.65
2023-03-05T18:04:37.476Z,2.03
2023-03-05T18:06:10.551Z,1.83
2023-03-05T18:07:43.673Z,1.98
2023-03-05T18:09:16.766Z,1.80
2023-03-05T18:10:50.274Z,2.00
2023-03-05T18:12:23.675Z,1.90
2023-03-05T18:13:56.883Z,2.00
2023-03-05T18:15:31.322Z,1.77
2023-03-05T18:17:04.711Z,2.17
2023-03-05T18:18:38.241Z,1.90
2023-03-05T18:20:28.513Z,1.83
2023-03-05T18:22:01.758Z,1.73
2023-03-05T18:23:35.077Z,2.20
2023-03-05T18:25:11.474Z,2.30
2023-03-05T18:26:45.104Z,2.15
2023-03-05T18:28:19.846Z,1.83
2023-03-05T18:29:54.163Z,2.25
2023-03-05T18:31:27.349Z,2.10
2023-03-05T18:33:01.230Z,2.70
2023-03-05T18:34:34.887Z,2.47
2023-03-05T18:36:10.960Z,2.28
2023-03-05T18:37:44.277Z,2.38
2023-03-05T18:39:18.597Z,2.30
2023-03-05T18:40:52.836Z,2.70
2023-03-05T18:42:25.934Z,2.47
2023-03-05T18:43:59.759Z,2.67
2023-03-05T18:45:34.130Z,2.90
2023-03-05T18:47:07.604Z,3.00
2023-03-05T18:48:40.878Z,3.03
2023-03-05T18:50:18.471Z,3.17
2023-03-05T18:51:53.142Z,3.63
2023-03-05T18:53:26.325Z,2.63
2023-03-05T18:54:59.644Z,3.42
2023-03-05T18:56:32.736Z,3.45
2023-03-05T18:58:06.087Z,2.33
2023-03-05T18:59:39.244Z,3.00
2023-03-05T19:01:12.416Z,3.53
2023-03-05T19:02:45.825Z,3.20
2023-03-05T19:04:18.949Z,3.30
2023-03-05T19:05:52.987Z,3.17
2023-03-05T19:07:27.633Z,2.83
2023-03-05T19:09:05.323Z,3.00
2023-03-05T19:10:38.905Z,3.00
2023-03-05T19:12:12.066Z,3.28
2023-03-05T19:13:48.967Z,2.83
2023-03-05T19:15:22.935Z,2.70
2023-03-05T19:16:56.192Z,2.50
2023-03-05T19:18:33.307Z,2.63
2023-03-05T19:20:08.354Z,2.53
2023-03-05T19:21:42.563Z,3.60
2023-03-05T19:23:17.103Z,3.47
2023-03-05T19:24:50.354Z,2.60
2023-03-05T19:26:23.966Z,5.85
2023-03-05T19:27:57.539Z,3.50
2023-03-05T19:29:32.634Z,4.43
2023-03-05T19:32:39.984Z,2.50
2023-03-05T19:34:13.116Z,2.70
2023-03-05T19:35:46.261Z,2.72
2023-03-05T19:37:19.369Z,2.33
2023-03-05T19:38:53.862Z,2.75
2023-03-05T19:40:27.080Z,2.03
2023-03-05T19:42:00.368Z,2.33
2023-03-05T19:43:33.937Z,2.40
2023-03-05T19:45:08.845Z,2.10
2023-03-05T19:48:16.822Z,2.20
2023-03-05T19:49:50.115Z,2.50
2023-03-05T19:51:26.725Z,2.83
2023-03-05T19:52:59.880Z,2.97
2023-03-05T19:54:34.797Z,2.90
2023-03-05T19:56:09.565Z,3.33
2023-03-05T19:57:42.838Z,2.63
2023-03-05T19:59:17.824Z,2.60
2023-03-05T20:00:50.961Z,2.35
2023-03-05T20:02:24.189Z,2.47
2023-03-05T20:04:00.124Z,2.30
2023-03-05T20:05:33.373Z,2.20
2023-03-05T20:07:07.066Z,2.72
2023-03-05T20:08:40.540Z,2.28
2023-03-05T20:10:15.224Z,2.40
2023-03-05T20:11:48.807Z,2.40
2023-03-05T20:13:21.951Z,2.28
2023-03-05T20:14:55.073Z,2.30
2023-03-05T20:16:31.334Z,2.55
2023-03-05T20:18:04.658Z,2.70
2023-03-05T20:19:37.959Z,3.25
2023-03-05T20:21:11.216Z,4.35
2023-03-05T20:22:44.392Z,3.40
2023-03-05T20:24:20.243Z,3.05
2023-03-05T20:25:55.281Z,2.50
2023-03-05T20:29:01.718Z,2.92
2023-03-05T20:30:35.001Z,3.90
2023-03-05T20:32:08.140Z,3.33
2023-03-05T20:33:41.390Z,3.80
2023-03-05T20:35:17.878Z,3.58
2023-03-05T20:36:51.121Z,4.10
2023-03-05T20:38:25.990Z,4.30
2023-03-05T20:39:59.241Z,4.07
2023-03-05T20:41:36.315Z,4.55
2023-03-05T20:43:08.674Z,3.80
2023-03-05T20:44:42.429Z,3.33
2023-03-05T20:46:18.584Z,3.38
2023-03-05T20:47:51.896Z,3.28
2023-03-05T20:49:25.199Z,3.58
2023-03-05T20:51:01.581Z,2.97
2023-03-05T20:52:34.982Z,3.33
2023-03-05T20:54:11.798Z,2.72
2023-03-05T20:55:45.633Z,3.50
2023-03-05T20:57:20.126Z,3.08
2023-03-05T20:58:53.434Z,3.63
2023-03-05T21:00:27.269Z,3.00
2023-03-05T21:02:00.470Z,3.25
2023-03-05T21:03:33.710Z,3.20
2023-03-05T21:05:08.236Z,3.00
2023-03-05T21:06:41.375Z,3.08
2023-03-05T21:08:14.645Z,3.10
2023-03-05T21:09:48.165Z,3.30
2023-03-05T21:11:22.122Z,3.08
2023-03-05T21:12:58.464Z,3.63
2023-03-05T21:14:37.524Z,3.13
2023-03-05T21:16:16.160Z,3.25
2023-03-05T21:17:49.943Z,3.92
2023-03-05T21:19:23.295Z,3.40
2023-03-05T21:20:56.935Z,3.28
2023-03-05T21:22:30.152Z,3.67
2023-03-05T21:24:03.690Z,3.35
2023-03-05T21:25:36.927Z,3.67
2023-03-05T21:27:09.606Z,3.42
2023-03-05T21:28:44.334Z,3.70
2023-03-05T21:30:19.434Z,3.58
2023-03-05T21:31:52.566Z,3.42
2023-03-05T21:33:28.283Z,3.53
2023-03-05T21:35:01.406Z,3.35
2023-03-05T21:36:34.986Z,3.42
2023-03-05T21:38:10.297Z,3.17